Pagina principale
METAR-TAF:

METAR-TAF

Aeroporti :

Pisa, Italia

Aeroporto di Pisa-San Giusto

latitudine: 43-41N, longitudine: 010-23E, altezza: 2 m

Osservazione

Il bollettino è stato emesso 27 minuti fa, alle 07:45 UTC
Vento 6 kt da sud-est
Temperature 22°C
Umidità 46%
Pressione 1020 hPa
Visibilità 10 km o più
nessuna nube inferiore a 1500 m e nessun cumulonembo

METAR: LIRP 270745Z 13006KT CAVOK 22/10 Q1020 NOSIG

Ora: 10:12 (08:12 UTC)

Previsione

Il bollettino è stato emesso 3 ore e 12 minuti fa, alle 05:00 UTC
Previsione valida dal 27 alle 06 UTC al 28 alle 06 UTC
Vento 7 kt da est/sud-est
Visibilità 10 km o più
nessuna nube inferiore a 1500 m e nessun cumulonembo
Temporaneamente
dal 27 alle 13 UTC al 27 alle 20 UTC
Vento 7 kt da nord

TAF: LIRP 270500Z 2706/2806 12007KT CAVOK TEMPO 2713/2720 01007KT

Osservazioni e previsioni meteorologiche di più di 4000 aeroporti (messaggi METAR e TAF).

Le stazioni disponibili sono rappresentate dai dischi gialli e rossi sulla carta.

Puntare il mouse per vedere il nome della stazione.

Clicca sopra per visualizzare le osservazioni e previsioni meteorologiche.

Per cambiare la mappa : fare clic sui pulsanti verdi con una croce nera per ingrandire, il pulsante verde con un trattino per diminuire, o sulla freccia verde per le mappe adiacenti.


METAR-TAF: